Time;durP1;ratioP1;P1;durP2;ratioP2;P2;SDS_P1;SDS_P2;PMS_P1;PMS_P2;Temp;Humidity;BMP_temperature;BMP_pressure;BME280_temperature;BME280_humidity;BME280_pressure;Samples;Min_cycle;Max_cycle;Signal;HPM_P1;HPM_P2
2021/09/19 00:02:14;;;;;;;11.63;9.48;;;14.90;99.90;;;;;;5115499;27;20024;-65
2021/09/19 00:04:39;;;;;;;11.53;9.07;;;14.90;99.90;;;;;;5115390;28;20496;-65
2021/09/19 00:07:05;;;;;;;11.38;9.57;;;14.90;99.90;;;;;;5113866;28;20054;-65
2021/09/19 00:09:31;;;;;;;11.95;10.10;;;14.80;99.90;;;;;;5115504;28;20508;-65
2021/09/19 00:11:56;;;;;;;12.23;9.15;;;14.80;99.90;;;;;;5115597;28;20016;-66
2021/09/19 00:14:22;;;;;;;16.65;10.45;;;14.70;99.90;;;;;;5115685;27;20031;-65
2021/09/19 00:16:48;;;;;;;10.88;9.55;;;14.70;99.90;;;;;;5115352;28;20024;-65
2021/09/19 00:19:15;;;;;;;11.68;9.60;;;14.70;99.90;;;;;;5115186;28;20390;-65
2021/09/19 00:21:41;;;;;;;12.57;9.15;;;14.70;99.90;;;;;;5115364;28;20437;-65
2021/09/19 00:24:07;;;;;;;13.65;10.40;;;14.60;99.90;;;;;;5115433;28;20083;-66
2021/09/19 00:26:32;;;;;;;13.40;9.13;;;14.60;99.90;;;;;;5113750;27;20034;-66
2021/09/19 00:28:58;;;;;;;11.10;9.30;;;14.60;99.90;;;;;;5115103;28;20102;-65
2021/09/19 00:31:24;;;;;;;11.35;9.60;;;14.60;99.90;;;;;;5115504;28;20250;-65
2021/09/19 00:33:49;;;;;;;13.00;9.10;;;14.50;99.90;;;;;;5115160;28;20519;-65
2021/09/19 00:36:15;;;;;;;11.93;9.25;;;14.50;99.90;;;;;;5115001;28;20019;-65
2021/09/19 00:38:41;;;;;;;11.13;8.93;;;14.50;99.90;;;;;;5115059;28;20435;-65
2021/09/19 00:41:06;;;;;;;14.35;9.88;;;14.50;99.90;;;;;;5113681;28;20050;-65
2021/09/19 00:43:32;;;;;;;14.32;10.05;;;14.50;99.90;;;;;;5114749;28;20046;-65
2021/09/19 00:45:58;;;;;;;12.55;9.57;;;14.60;99.90;;;;;;5114790;28;20055;-65
2021/09/19 00:48:23;;;;;;;11.02;9.43;;;14.50;99.90;;;;;;5114865;28;20027;-65
2021/09/19 00:50:49;;;;;;;11.65;9.55;;;14.50;99.90;;;;;;5114869;28;20024;-65
2021/09/19 00:53:15;;;;;;;11.83;9.50;;;14.60;99.90;;;;;;5114907;28;20491;-65
2021/09/19 00:55:43;;;;;;;13.38;9.65;;;14.50;99.90;;;;;;5114777;28;20258;-66
2021/09/19 00:58:11;;;;;;;12.27;9.50;;;14.50;99.90;;;;;;5114571;28;20036;-65
2021/09/19 01:00:39;;;;;;;11.32;10.00;;;14.50;99.90;;;;;;5114660;27;20452;-65
2021/09/19 01:03:05;;;;;;;10.50;9.00;;;14.40;99.90;;;;;;5113057;28;20399;-65
2021/09/19 01:05:31;;;;;;;11.85;8.63;;;14.40;99.90;;;;;;5113191;28;20423;-66
2021/09/19 01:07:58;;;;;;;13.20;10.15;;;14.30;99.90;;;;;;5114262;28;20115;-66
2021/09/19 01:10:26;;;;;;;12.80;10.27;;;14.30;99.90;;;;;;5114867;28;20048;-66
2021/09/19 01:12:54;;;;;;;11.05;9.65;;;14.30;99.90;;;;;;5114440;28;20016;-65
2021/09/19 01:15:21;;;;;;;11.02;9.40;;;14.20;99.90;;;;;;5114906;28;20015;-65
2021/09/19 01:17:47;;;;;;;;;;;14.20;99.90;;;;;;5115321;28;20095;-65
2021/09/19 01:20:14;;;;;;;10.63;9.43;;;14.20;99.90;;;;;;5114630;28;20029;-66
2021/09/19 01:22:46;;;;;;;12.73;9.48;;;14.20;99.90;;;;;;5115302;28;20023;-66
2021/09/19 01:25:14;;;;;;;13.27;9.70;;;14.20;99.90;;;;;;5114835;28;20669;-66
2021/09/19 01:27:43;;;;;;;11.63;9.02;;;14.10;99.90;;;;;;5114432;28;20060;-66
2021/09/19 01:30:10;;;;;;;12.35;9.75;;;14.10;99.90;;;;;;5114718;28;20032;-65
2021/09/19 01:32:39;;;;;;;14.80;9.73;;;14.10;99.90;;;;;;5113013;28;20023;-66
2021/09/19 01:35:05;;;;;;;11.10;8.85;;;14.10;99.90;;;;;;5114911;28;20016;-66
2021/09/19 01:37:31;;;;;;;12.40;9.15;;;14.10;99.90;;;;;;5114398;28;20050;-66
2021/09/19 01:39:56;;;;;;;10.87;8.90;;;14.10;99.90;;;;;;5114442;28;20495;-67
2021/09/19 01:42:25;;;;;;;10.93;8.33;;;14.00;99.90;;;;;;5114652;28;20041;-66
2021/09/19 01:44:51;;;;;;;9.95;8.15;;;14.00;99.90;;;;;;5114248;28;20352;-65
2021/09/19 01:47:16;;;;;;;9.77;8.20;;;14.00;99.90;;;;;;5113875;28;20531;-66
2021/09/19 01:49:47;;;;;;;11.20;8.23;;;14.00;99.90;;;;;;5114245;28;20606;-65
2021/09/19 01:52:13;;;;;;;10.15;7.63;;;13.90;99.90;;;;;;5113364;28;20261;-65
2021/09/19 01:54:38;;;;;;;11.07;7.95;;;13.90;99.90;;;;;;5113453;28;20027;-65
2021/09/19 01:57:04;;;;;;;9.33;7.83;;;13.80;99.90;;;;;;5113372;28;20028;-65
2021/09/19 01:59:30;;;;;;;8.73;7.40;;;13.80;99.90;;;;;;5113548;28;20036;-65
2021/09/19 02:01:56;;;;;;;11.50;7.85;;;13.80;99.90;;;;;;5113471;28;20027;-65
2021/09/19 02:04:21;;;;;;;8.95;7.28;;;13.80;99.90;;;;;;5113319;28;20038;-65
2021/09/19 02:06:47;;;;;;;10.73;7.10;;;13.70;99.90;;;;;;5113310;28;20027;-65
2021/09/19 02:09:12;;;;;;;10.20;7.07;;;13.70;99.90;;;;;;5113178;28;20028;-65
2021/09/19 02:11:38;;;;;;;9.20;6.87;;;13.70;99.90;;;;;;5113385;28;20034;-65
2021/09/19 02:14:04;;;;;;;8.65;7.40;;;13.70;99.90;;;;;;5111700;28;20019;-65
2021/09/19 02:16:30;;;;;;;9.27;6.87;;;13.70;99.90;;;;;;5113016;28;20032;-65
2021/09/19 02:18:56;;;;;;;9.05;6.97;;;13.60;99.90;;;;;;5113201;28;20423;-65
2021/09/19 02:21:23;;;;;;;10.10;6.85;;;13.70;99.90;;;;;;5113054;28;20106;-66
2021/09/19 02:23:48;;;;;;;;;;;13.60;99.90;;;;;;5113425;28;20028;-65
2021/09/19 02:26:14;;;;;;;8.70;7.03;;;13.60;99.90;;;;;;5111814;28;20284;-64
2021/09/19 02:28:40;;;;;;;8.10;7.03;;;13.60;99.90;;;;;;5112923;28;20023;-65
2021/09/19 02:31:05;;;;;;;8.68;6.88;;;13.60;99.90;;;;;;5112868;28;20519;-65
2021/09/19 02:33:31;;;;;;;9.30;6.47;;;13.60;99.90;;;;;;5112883;28;20064;-65
2021/09/19 02:35:57;;;;;;;9.77;6.55;;;13.60;99.90;;;;;;5112668;28;20023;-65
2021/09/19 02:38:23;;;;;;;10.00;6.57;;;13.50;99.90;;;;;;5112950;28;20130;-65
2021/09/19 02:40:51;;;;;;;7.05;5.75;;;13.60;99.90;;;;;;5112699;28;20722;-65
2021/09/19 02:43:18;;;;;;;11.07;6.40;;;13.50;99.90;;;;;;5112982;28;20503;-65
2021/09/19 02:45:43;;;;;;;9.63;6.22;;;13.50;99.90;;;;;;5112688;28;20425;-65
2021/09/19 02:48:09;;;;;;;7.00;5.97;;;13.50;99.90;;;;;;5112570;28;20129;-65
2021/09/19 02:50:35;;;;;;;8.48;6.53;;;13.50;99.90;;;;;;5113219;28;20023;-65
2021/09/19 02:53:00;;;;;;;7.10;5.90;;;13.50;99.90;;;;;;5111295;28;20080;-65
2021/09/19 02:55:26;;;;;;;7.63;5.75;;;13.50;99.90;;;;;;5112802;28;20056;-65
2021/09/19 02:57:52;;;;;;;6.50;5.43;;;13.40;99.90;;;;;;5113013;28;20055;-65
2021/09/19 03:00:20;;;;;;;8.60;5.70;;;13.30;99.90;;;;;;5112709;28;20092;-65
2021/09/19 03:02:47;;;;;;;7.63;5.90;;;13.30;99.90;;;;;;5113170;28;20027;-65
2021/09/19 03:05:13;;;;;;;6.85;5.20;;;13.20;99.90;;;;;;5117636;28;20035;-65
2021/09/19 03:07:39;;;;;;;8.32;5.70;;;13.20;99.90;;;;;;5116792;28;20027;-65
2021/09/19 03:10:07;;;;;;;5.75;4.88;;;13.20;99.90;;;;;;5116921;28;20024;-66
2021/09/19 03:12:32;;;;;;;7.20;5.53;;;13.20;99.90;;;;;;5116785;28;20027;-66
2021/09/19 03:14:58;;;;;;;8.60;5.10;;;13.10;99.90;;;;;;5116433;28;20028;-65
2021/09/19 03:17:23;;;;;;;7.77;4.90;;;13.10;99.90;;;;;;5116567;28;20031;-64
2021/09/19 03:19:49;;;;;;;5.60;4.70;;;13.10;99.90;;;;;;5116494;28;20261;-65
2021/09/19 03:22:15;;;;;;;5.80;4.70;;;13.10;99.90;;;;;;5117019;28;20448;-65
2021/09/19 03:24:40;;;;;;;5.68;4.68;;;13.00;99.90;;;;;;5116755;28;20480;-65
2021/09/19 03:27:06;;;;;;;5.37;4.87;;;13.00;99.90;;;;;;5116670;28;20122;-65
2021/09/19 03:29:32;;;;;;;6.77;4.50;;;12.90;99.90;;;;;;5116785;28;20250;-65
2021/09/19 03:31:57;;;;;;;6.20;4.37;;;13.00;99.90;;;;;;5116650;28;20266;-65
2021/09/19 03:34:23;;;;;;;8.20;4.77;;;13.00;99.90;;;;;;5116158;28;20613;-65
2021/09/19 03:36:50;;;;;;;5.35;4.30;;;13.00;99.90;;;;;;5116471;28;20076;-65
2021/09/19 03:39:16;;;;;;;;;;;13.00;99.90;;;;;;5117156;28;20497;-65
2021/09/19 03:41:41;;;;;;;5.30;4.75;;;13.00;99.90;;;;;;5116176;28;19903;-65
2021/09/19 03:44:09;;;;;;;5.57;4.40;;;13.00;99.90;;;;;;5114880;28;20015;-65
2021/09/19 03:46:34;;;;;;;4.95;4.45;;;13.00;99.90;;;;;;5116042;28;20111;-65
2021/09/19 03:49:00;;;;;;;5.20;4.47;;;13.00;99.90;;;;;;5116294;28;20031;-64
2021/09/19 03:51:25;;;;;;;6.07;4.50;;;13.00;99.90;;;;;;5115956;28;20618;-64
2021/09/19 03:53:51;;;;;;;5.03;4.32;;;12.90;99.90;;;;;;5116188;28;20047;-64
2021/09/19 03:56:17;;;;;;;5.23;4.00;;;12.90;99.90;;;;;;5116006;28;20368;-64
2021/09/19 03:58:43;;;;;;;5.63;3.83;;;12.90;99.90;;;;;;5116119;28;20076;-64
2021/09/19 04:01:08;;;;;;;5.53;4.00;;;12.90;99.90;;;;;;5116289;28;20106;-65
2021/09/19 04:03:34;;;;;;;5.18;4.18;;;12.90;99.90;;;;;;5114453;28;20497;-65
2021/09/19 04:06:00;;;;;;;5.28;4.00;;;12.80;99.90;;;;;;5115570;28;20028;-65
2021/09/19 04:08:25;;;;;;;4.40;3.63;;;12.70;99.90;;;;;;5115653;28;20530;-65
2021/09/19 04:10:51;;;;;;;6.77;3.87;;;12.70;99.90;;;;;;5115539;27;20023;-64
2021/09/19 04:13:16;;;;;;;5.25;3.72;;;12.60;99.90;;;;;;5115682;28;20453;-64
2021/09/19 04:15:42;;;;;;;5.27;4.00;;;12.60;99.90;;;;;;5115399;28;20019;-64
2021/09/19 04:18:08;;;;;;;3.87;3.33;;;12.60;99.90;;;;;;5115831;28;20300;-65
2021/09/19 04:20:35;;;;;;;7.40;3.83;;;12.50;99.90;;;;;;5115389;28;20055;-66
2021/09/19 04:23:01;;;;;;;4.72;4.05;;;12.50;99.90;;;;;;5114186;28;20028;-65
2021/09/19 04:25:27;;;;;;;4.68;3.80;;;12.50;99.90;;;;;;5115625;28;20494;-66
2021/09/19 04:27:53;;;;;;;6.55;3.78;;;12.40;99.90;;;;;;5115025;28;20059;-66
2021/09/19 04:30:18;;;;;;;7.18;4.00;;;12.30;99.90;;;;;;5115161;28;20019;-65
2021/09/19 04:32:44;;;;;;;4.37;3.47;;;12.30;99.90;;;;;;5113831;28;20032;-65
2021/09/19 04:35:10;;;;;;;4.97;3.72;;;12.30;99.90;;;;;;5115094;28;20024;-65
2021/09/19 04:37:36;;;;;;;4.93;3.65;;;12.30;99.90;;;;;;5114673;27;20587;-65
2021/09/19 04:40:02;;;;;;;4.47;3.55;;;12.20;99.90;;;;;;5114903;28;20023;-65
2021/09/19 04:42:28;;;;;;;8.85;3.38;;;12.20;99.90;;;;;;5114785;28;20039;-65
2021/09/19 04:44:54;;;;;;;5.33;3.50;;;12.20;99.90;;;;;;5113343;28;20061;-66
2021/09/19 04:47:19;;;;;;;4.83;3.30;;;12.10;99.90;;;;;;5114786;28;20748;-66
2021/09/19 04:49:45;;;;;;;4.93;3.50;;;12.10;99.90;;;;;;5114621;28;20019;-66
2021/09/19 04:52:11;;;;;;;4.13;3.63;;;12.10;99.90;;;;;;5115105;28;20437;-65
2021/09/19 04:54:37;;;;;;;6.05;3.40;;;12.10;99.90;;;;;;5113895;28;20020;-65
2021/09/19 04:57:03;;;;;;;4.47;3.55;;;12.10;99.90;;;;;;5114701;28;20136;-65
2021/09/19 04:59:29;;;;;;;3.55;3.20;;;12.10;99.90;;;;;;5114550;28;20055;-65
2021/09/19 05:01:54;;;;;;;5.25;3.60;;;12.10;99.90;;;;;;5114515;28;20058;-65
2021/09/19 05:04:20;;;;;;;6.97;3.63;;;12.00;99.90;;;;;;5114387;28;20043;-65
2021/09/19 05:06:46;;;;;;;4.57;3.30;;;12.10;99.90;;;;;;5114324;28;20313;-65
2021/09/19 05:09:11;;;;;;;4.13;3.22;;;12.00;99.90;;;;;;5113077;28;20388;-65
2021/09/19 05:11:37;;;;;;;4.05;3.10;;;12.00;99.90;;;;;;5113978;28;20050;-64
2021/09/19 05:14:03;;;;;;;3.93;3.37;;;12.00;99.90;;;;;;5114070;28;20035;-65
2021/09/19 05:16:28;;;;;;;4.03;3.33;;;12.00;99.90;;;;;;5114322;28;20422;-65
2021/09/19 05:18:57;;;;;;;5.97;3.20;;;12.00;99.90;;;;;;5114151;28;20030;-65
2021/09/19 05:21:24;;;;;;;3.88;3.10;;;12.00;99.90;;;;;;5114238;27;20020;-65
2021/09/19 05:23:50;;;;;;;3.88;3.28;;;12.00;99.90;;;;;;5114842;28;20032;-64
2021/09/19 05:26:17;;;;;;;4.15;3.30;;;12.10;99.90;;;;;;5113587;28;20030;-64
2021/09/19 05:28:42;;;;;;;4.10;3.47;;;12.10;99.90;;;;;;5114035;28;20476;-65
2021/09/19 05:31:08;;;;;;;6.53;3.37;;;12.10;99.90;;;;;;5113933;28;20081;-65
2021/09/19 05:33:34;;;;;;;4.82;3.38;;;12.00;99.90;;;;;;5113955;28;20417;-64
2021/09/19 05:36:00;;;;;;;4.50;3.55;;;12.10;99.90;;;;;;5113898;28;20051;-64
2021/09/19 05:38:26;;;;;;;4.47;3.30;;;12.00;99.90;;;;;;5113884;28;20389;-65
2021/09/19 05:40:51;;;;;;;4.28;3.10;;;12.00;99.90;;;;;;5113987;28;20045;-65
2021/09/19 05:43:17;;;;;;;4.53;3.13;;;12.00;99.90;;;;;;5113870;28;20026;-65
2021/09/19 05:45:43;;;;;;;5.17;3.57;;;12.00;99.90;;;;;;5114104;28;20368;-64
2021/09/19 05:48:08;;;;;;;4.80;3.20;;;12.00;99.90;;;;;;5113395;28;20647;-66
2021/09/19 05:50:34;;;;;;;4.00;2.93;;;12.00;99.90;;;;;;5113782;28;20258;-65
2021/09/19 05:53:00;;;;;;;4.80;3.03;;;12.00;99.90;;;;;;5114126;28;20024;-65
2021/09/19 05:55:25;;;;;;;5.03;3.37;;;12.10;99.90;;;;;;5114049;28;20028;-65
2021/09/19 05:57:51;;;;;;;6.67;2.83;;;12.10;99.90;;;;;;5113481;28;20033;-66
2021/09/19 06:00:17;;;;;;;4.00;3.22;;;12.10;99.90;;;;;;5113570;28;20076;-65
2021/09/19 06:02:43;;;;;;;3.95;3.28;;;12.20;99.90;;;;;;5113898;28;20494;-66
2021/09/19 06:05:10;;;;;;;4.50;3.50;;;12.20;99.90;;;;;;5113882;28;20043;-64
2021/09/19 06:07:36;;;;;;;4.07;3.17;;;12.20;99.90;;;;;;5113154;28;20049;-64
2021/09/19 06:10:02;;;;;;;4.80;3.10;;;12.20;99.90;;;;;;5113541;28;20024;-64
2021/09/19 06:12:28;;;;;;;5.35;3.33;;;12.20;99.90;;;;;;5114039;28;20050;-67
2021/09/19 06:14:54;;;;;;;4.90;2.90;;;12.20;99.90;;;;;;5113633;28;20496;-64
2021/09/19 06:17:20;;;;;;;5.25;3.15;;;12.30;99.90;;;;;;5113347;28;20307;-65
2021/09/19 06:19:50;;;;;;;4.65;3.47;;;12.30;99.90;;;;;;5113173;28;20032;-65
2021/09/19 06:22:17;;;;;;;4.82;3.13;;;12.40;99.90;;;;;;5113228;28;20028;-65
2021/09/19 06:24:43;;;;;;;3.85;2.70;;;12.40;99.90;;;;;;5112043;28;20428;-65
2021/09/19 06:27:12;;;;;;;6.43;3.03;;;12.50;99.90;;;;;;5112966;28;20028;-65
2021/09/19 06:29:38;;;;;;;7.05;2.90;;;12.60;99.90;;;;;;5112358;28;20061;-65
2021/09/19 06:32:04;;;;;;;4.95;3.00;;;12.60;99.90;;;;;;5114837;28;20468;-67
2021/09/19 06:34:30;;;;;;;3.30;2.72;;;12.60;99.90;;;;;;5114257;28;20031;-66
2021/09/19 06:36:55;;;;;;;7.13;3.03;;;12.70;99.90;;;;;;5113485;28;20023;-66
2021/09/19 06:39:21;;;;;;;4.63;3.07;;;12.80;99.90;;;;;;5113520;28;20388;-66
2021/09/19 06:41:50;;;;;;;4.23;2.83;;;12.80;99.90;;;;;;5113522;28;20106;-67
2021/09/19 06:44:17;;;;;;;5.07;3.10;;;12.90;99.90;;;;;;5113085;28;20019;-66
2021/09/19 06:46:43;;;;;;;4.90;3.38;;;13.00;99.90;;;;;;5112846;28;20140;-67
2021/09/19 06:49:09;;;;;;;6.55;4.07;;;13.00;99.90;;;;;;5113117;28;20027;-68
2021/09/19 06:51:34;;;;;;;4.23;3.30;;;13.10;99.90;;;;;;5115552;28;20384;-66
2021/09/19 06:54:00;;;;;;;6.55;3.15;;;13.10;99.90;;;;;;5111896;28;20487;-66
2021/09/19 06:56:26;;;;;;;3.70;2.95;;;13.20;99.90;;;;;;5113261;28;20059;-66
2021/09/19 06:58:52;;;;;;;8.50;3.05;;;13.20;99.90;;;;;;5113292;28;20023;-66
2021/09/19 07:01:21;;;;;;;3.72;2.72;;;13.30;99.90;;;;;;5113216;28;20027;-66
2021/09/19 07:03:47;;;;;;;5.10;2.80;;;13.40;99.90;;;;;;5112494;28;20044;-64
2021/09/19 07:06:12;;;;;;;5.73;3.00;;;13.50;99.90;;;;;;5114700;28;20499;-65
2021/09/19 07:08:38;;;;;;;6.33;3.03;;;13.60;99.90;;;;;;5112687;28;20304;-65
2021/09/19 07:11:04;;;;;;;4.43;2.67;;;13.60;99.90;;;;;;5113205;28;20072;-66
2021/09/19 07:13:29;;;;;;;4.50;3.00;;;13.70;99.90;;;;;;5113252;28;20250;-66
2021/09/19 07:15:55;;;;;;;4.90;2.93;;;13.80;99.90;;;;;;5113115;28;20032;-65
2021/09/19 07:18:22;;;;;;;3.27;2.77;;;13.80;99.90;;;;;;5112695;28;20260;-65
2021/09/19 07:20:48;;;;;;;3.33;2.67;;;13.90;99.90;;;;;;5113080;28;20268;-68
2021/09/19 07:23:14;;;;;;;3.55;2.80;;;13.90;99.90;;;;;;5113285;28;20072;-67
2021/09/19 07:25:40;;;;;;;4.65;3.15;;;14.00;99.90;;;;;;5112077;28;20027;-66
2021/09/19 07:28:06;;;;;;;5.18;2.83;;;14.10;99.90;;;;;;5111707;28;20032;-66
2021/09/19 07:30:33;;;;;;;3.67;2.70;;;14.20;99.90;;;;;;5112802;28;20050;-68
2021/09/19 07:32:59;;;;;;;;;;;14.20;99.90;;;;;;5111630;28;20073;-71
2021/09/19 07:35:25;;;;;;;3.25;2.63;;;14.30;99.90;;;;;;5113297;28;20303;-65
2021/09/19 07:37:51;;;;;;;4.80;2.80;;;14.40;99.90;;;;;;5112911;28;20059;-64
2021/09/19 07:40:17;;;;;;;4.63;3.30;;;14.50;99.90;;;;;;5113143;28;20031;-65
2021/09/19 07:42:43;;;;;;;3.55;2.90;;;14.50;99.90;;;;;;5112319;28;20134;-66
2021/09/19 07:45:10;;;;;;;4.38;3.05;;;14.60;99.90;;;;;;5112611;28;20031;-67
2021/09/19 07:47:36;;;;;;;4.60;2.60;;;14.70;99.90;;;;;;5112656;28;20027;-65
2021/09/19 07:50:02;;;;;;;3.78;3.22;;;14.80;99.90;;;;;;5113417;28;20065;-68
2021/09/19 07:52:28;;;;;;;4.50;2.88;;;14.80;99.90;;;;;;5114823;28;20114;-64
2021/09/19 07:54:54;;;;;;;3.08;2.60;;;14.90;99.90;;;;;;5116388;28;20062;-69
2021/09/19 07:57:24;;;;;;;3.88;2.40;;;15.00;99.90;;;;;;5115941;28;20076;-70
2021/09/19 07:59:51;;;;;;;3.92;2.60;;;15.00;99.90;;;;;;5114555;28;20535;-71
2021/09/19 08:02:16;;;;;;;3.30;2.67;;;15.10;99.90;;;;;;5115708;28;20434;-69
2021/09/19 08:04:42;;;;;;;4.50;2.42;;;15.20;99.90;;;;;;5116108;28;20036;-71
2021/09/19 08:07:08;;;;;;;6.00;2.95;;;15.40;99.90;;;;;;5115587;28;20031;-69
2021/09/19 08:09:33;;;;;;;3.92;2.75;;;15.50;99.90;;;;;;5115775;28;20477;-70
2021/09/19 08:11:59;;;;;;;5.28;2.95;;;15.60;99.90;;;;;;5115572;28;20066;-68
2021/09/19 08:14:25;;;;;;;3.92;2.58;;;15.70;99.90;;;;;;5115783;28;20054;-73
2021/09/19 08:16:51;;;;;;;3.42;2.72;;;15.80;99.90;;;;;;5115597;28;20103;-72
2021/09/19 08:19:18;;;;;;;3.95;2.63;;;15.90;99.90;;;;;;5114116;28;20031;-71
2021/09/19 08:21:44;;;;;;;3.55;2.80;;;16.00;99.90;;;;;;5114087;28;20028;-71
2021/09/19 08:24:11;;;;;;;3.78;2.85;;;16.10;99.90;;;;;;5114016;28;20023;-70
2021/09/19 08:26:38;;;;;;;5.47;2.80;;;16.10;99.90;;;;;;5113843;28;20027;-71
2021/09/19 08:29:05;;;;;;;3.13;2.58;;;16.10;99.90;;;;;;5113912;28;20048;-71
2021/09/19 08:31:30;;;;;;;3.95;2.78;;;16.20;99.90;;;;;;5116774;28;20031;-71
2021/09/19 08:33:56;;;;;;;3.03;2.70;;;16.30;99.90;;;;;;5115317;28;20388;-69
2021/09/19 08:36:22;;;;;;;3.45;2.33;;;16.40;99.90;;;;;;5115422;28;20073;-70
2021/09/19 08:38:47;;;;;;;2.40;2.20;;;17.00;99.90;;;;;;5113817;28;20050;-71
2021/09/19 08:41:17;;;;;;;3.00;2.38;;;18.10;99.90;;;;;;5113825;28;20027;-72
2021/09/19 08:43:44;;;;;;;5.43;2.90;;;19.50;99.90;;;;;;5115074;28;20024;-73
2021/09/19 08:46:11;;;;;;;4.47;3.10;;;20.40;99.90;;;;;;5114982;28;20023;-73
2021/09/19 08:48:38;;;;;;;2.33;2.10;;;20.80;99.90;;;;;;5113417;28;20024;-71
2021/09/19 08:51:04;;;;;;;2.95;2.15;;;21.90;99.30;;;;;;5113325;28;20020;-70
2021/09/19 08:53:31;;;;;;;2.88;2.28;;;21.80;98.40;;;;;;5114868;28;20106;-71
2021/09/19 08:55:58;;;;;;;3.17;2.10;;;22.00;98.10;;;;;;5114836;27;20497;-70
2021/09/19 08:58:23;;;;;;;3.80;2.40;;;23.20;96.40;;;;;;5114787;27;20049;-71
2021/09/19 09:00:49;;;;;;;;;;;24.20;94.60;;;;;;5114252;28;20027;-69
2021/09/19 09:03:24;;;;;;;6.57;2.58;;;24.80;93.20;;;;;;5114639;27;19908;-70
2021/09/19 09:06:05;;;;;;;3.05;2.42;;;24.80;92.00;;;;;;5114875;28;20027;-72
2021/09/19 09:08:32;;;;;;;2.33;2.13;;;24.70;92.30;;;;;;5114871;28;20360;-71
2021/09/19 09:11:00;;;;;;;2.35;2.15;;;25.10;91.70;;;;;;5114500;27;20418;-72
2021/09/19 09:13:28;;;;;;;2.97;2.20;;;25.60;90.80;;;;;;5113090;28;20484;-71
2021/09/19 09:16:15;;;;;;;3.33;2.30;;;26.40;89.80;;;;;;5113029;28;20468;-71
2021/09/19 09:18:45;;;;;;;3.47;1.95;;;25.50;89.70;;;;;;5114322;28;20032;-72
2021/09/19 09:21:28;;;;;;;2.90;2.47;;;26.20;88.20;;;;;;5114686;28;20022;-71
2021/09/19 09:23:56;;;;;;;3.72;2.47;;;25.80;87.80;;;;;;5114797;28;20020;-71
2021/09/19 09:26:32;;;;;;;3.35;2.28;;;26.10;87.30;;;;;;5113844;28;20049;-71
2021/09/19 09:29:09;;;;;;;2.97;2.20;;;26.20;86.60;;;;;;5112490;28;20497;-71
2021/09/19 09:31:40;;;;;;;3.63;2.30;;;25.60;87.60;;;;;;5114222;28;20047;-70
2021/09/19 09:34:35;;;;;;;2.47;2.28;;;25.60;87.70;;;;;;5114033;28;20046;-70
2021/09/19 09:37:03;;;;;;;3.10;1.88;;;25.80;87.80;;;;;;5104890;28;20036;-71
2021/09/19 09:39:37;;;;;;;2.95;2.22;;;26.90;86.90;;;;;;5112592;28;20028;-72
2021/09/19 09:42:15;;;;;;;3.17;2.17;;;27.00;84.30;;;;;;5113705;28;20072;-73
2021/09/19 09:44:45;;;;;;;3.05;2.30;;;27.10;83.60;;;;;;5114028;28;20068;-73
2021/09/19 09:47:14;;;;;;;3.58;2.50;;;28.50;81.00;;;;;;5113832;28;20016;-71
2021/09/19 09:49:42;;;;;;;4.75;2.65;;;27.30;81.80;;;;;;5126343;22;20092;-66
2021/09/19 09:52:11;;;;;;;3.33;2.17;;;27.00;82.60;;;;;;5094360;28;20022;-69
2021/09/19 09:54:47;;;;;;;3.88;2.35;;;26.70;83.40;;;;;;5094517;28;20024;-67
2021/09/19 09:57:25;;;;;;;3.15;2.30;;;26.00;84.50;;;;;;5095816;28;20096;-69
2021/09/19 09:59:51;;;;;;;2.72;2.00;;;26.90;83.20;;;;;;5095561;28;20032;-67
2021/09/19 10:02:18;;;;;;;2.40;2.05;;;27.90;81.60;;;;;;5096716;28;20326;-69
2021/09/19 10:04:45;;;;;;;2.33;2.10;;;29.10;78.70;;;;;;5093522;28;20020;-68
2021/09/19 10:07:11;;;;;;;2.15;1.80;;;29.70;76.20;;;;;;5094052;28;20028;-67
2021/09/19 10:09:37;;;;;;;3.60;1.98;;;29.80;76.10;;;;;;5096928;28;20028;-66
2021/09/19 10:12:03;;;;;;;3.03;2.10;;;29.50;75.50;;;;;;5095577;28;20024;-69
2021/09/19 10:14:30;;;;;;;2.30;2.10;;;30.00;74.90;;;;;;5094438;28;20021;-68
2021/09/19 10:16:55;;;;;;;3.97;2.17;;;29.50;75.00;;;;;;5094172;28;20016;-68
2021/09/19 10:19:21;;;;;;;2.60;2.10;;;28.80;76.60;;;;;;5093819;28;20516;-67
2021/09/19 10:21:48;;;;;;;2.80;2.20;;;28.90;76.30;;;;;;5093242;28;20028;-70
2021/09/19 10:24:15;;;;;;;2.40;2.20;;;29.40;75.10;;;;;;5094753;28;20114;-68
2021/09/19 10:26:52;;;;;;;2.63;2.42;;;29.90;74.50;;;;;;5093014;28;20028;-70
2021/09/19 10:29:20;;;;;;;2.90;2.28;;;30.20;73.40;;;;;;5095571;28;20027;-69
2021/09/19 10:31:45;;;;;;;4.38;2.33;;;30.10;73.10;;;;;;5094459;28;20039;-71
2021/09/19 10:34:28;;;;;;;3.42;2.67;;;28.60;78.10;;;;;;5093490;28;20066;-71
2021/09/19 10:36:56;;;;;;;4.13;2.60;;;28.00;75.80;;;;;;5093738;28;20024;-70
2021/09/19 10:39:21;;;;;;;2.53;2.33;;;27.30;77.80;;;;;;5094281;28;20024;-71
2021/09/19 10:42:19;;;;;;;4.10;2.80;;;27.00;78.20;;;;;;5093406;28;20031;-67
2021/09/19 10:44:44;;;;;;;6.63;2.67;;;26.60;79.80;;;;;;5093606;28;20058;-66
2021/09/19 10:47:25;;;;;;;3.42;3.10;;;27.60;79.40;;;;;;5100692;28;20107;-67
2021/09/19 10:50:22;;;;;;;3.40;3.00;;;27.80;76.20;;;;;;5105364;28;20024;-67
2021/09/19 10:52:51;;;;;;;2.97;2.67;;;28.30;76.10;;;;;;5096887;28;20472;-66
2021/09/19 10:55:33;;;;;;;3.60;2.72;;;28.20;76.20;;;;;;5094796;28;20042;-66
2021/09/19 10:58:02;;;;;;;4.43;2.92;;;27.60;76.70;;;;;;5094010;28;20055;-68
2021/09/19 11:00:30;;;;;;;3.67;2.70;;;26.90;77.70;;;;;;5095132;28;20389;-67
2021/09/19 11:03:15;;;;;;;5.55;3.22;;;25.90;80.00;;;;;;5094741;28;20534;-68
2021/09/19 11:05:48;;;;;;;3.10;2.70;;;24.60;82.90;;;;;;5093165;28;20525;-67
2021/09/19 11:08:19;;;;;;;4.50;3.72;;;24.10;85.00;;;;;;5092616;28;20047;-68
2021/09/19 11:10:45;;;;;;;4.65;3.70;;;23.70;87.00;;;;;;5093478;28;20378;-69
2021/09/19 11:13:22;;;;;;;;;;;23.50;88.40;;;;;;5092437;28;20027;-69
2021/09/19 11:16:03;;;;;;;4.65;3.10;;;23.00;89.20;;;;;;5093121;28;19904;-68
2021/09/19 11:18:47;;;;;;;8.82;3.45;;;22.80;90.70;;;;;;5092713;28;20028;-68
2021/09/19 11:21:19;;;;;;;6.00;3.47;;;22.60;91.00;;;;;;5102269;28;20051;-69
2021/09/19 11:24:08;;;;;;;3.58;3.10;;;22.80;91.30;;;;;;5102472;28;20024;-68
2021/09/19 11:26:37;;;;;;;4.28;3.10;;;22.80;90.40;;;;;;5097810;28;20385;-69
2021/09/19 11:29:09;;;;;;;4.82;3.33;;;22.80;91.00;;;;;;5098062;28;20038;-69
2021/09/19 11:31:35;;;;;;;3.60;3.30;;;22.80;90.50;;;;;;5097483;28;20024;-69
2021/09/19 11:34:07;;;;;;;4.35;3.20;;;22.60;90.70;;;;;;5096008;28;20338;-69
2021/09/19 11:36:33;;;;;;;5.05;3.95;;;22.50;91.10;;;;;;5096135;28;20028;-68
2021/09/19 11:38:59;;;;;;;4.00;3.17;;;22.30;91.10;;;;;;5096100;28;20031;-68
2021/09/19 11:41:27;;;;;;;3.40;2.97;;;22.20;91.60;;;;;;5096145;28;20051;-69
2021/09/19 11:43:55;;;;;;;3.65;2.90;;;22.20;92.00;;;;;;5095835;28;20028;-69
2021/09/19 11:46:24;;;;;;;3.80;3.50;;;22.20;92.60;;;;;;5097052;28;20035;-68
2021/09/19 11:48:50;;;;;;;4.68;3.50;;;22.30;92.00;;;;;;5097104;28;20028;-68
2021/09/19 11:51:17;;;;;;;;;;;22.20;92.10;;;;;;5097462;28;20020;-69
2021/09/19 11:53:44;;;;;;;3.22;2.92;;;22.20;92.30;;;;;;5095828;28;19912;-68
2021/09/19 11:56:10;;;;;;;3.92;3.45;;;22.20;92.30;;;;;;5097183;28;20036;-68
2021/09/19 11:58:36;;;;;;;4.50;3.33;;;21.90;92.50;;;;;;5095912;28;20020;-66
2021/09/19 12:01:03;;;;;;;4.00;3.30;;;21.70;93.00;;;;;;5096819;28;20037;-67
2021/09/19 12:03:29;;;;;;;5.05;3.30;;;21.80;93.20;;;;;;5096847;28;20085;-67
2021/09/19 12:06:00;;;;;;;6.07;3.70;;;21.70;93.10;;;;;;5096515;28;20035;-66
2021/09/19 12:08:28;;;;;;;3.83;3.45;;;21.80;93.40;;;;;;5095163;28;20107;-67
2021/09/19 12:10:54;;;;;;;4.65;3.55;;;21.90;93.30;;;;;;5096872;28;20422;-68
2021/09/19 12:13:29;;;;;;;3.60;3.30;;;21.90;93.10;;;;;;5095620;28;20571;-68
2021/09/19 12:16:02;;;;;;;4.63;3.35;;;21.80;93.50;;;;;;5096622;28;20388;-68
2021/09/19 12:18:31;;;;;;;4.63;3.42;;;21.60;93.60;;;;;;5096950;28;20028;-68
2021/09/19 12:21:10;;;;;;;6.25;4.25;;;21.40;94.20;;;;;;5102300;28;20051;-68
2021/09/19 12:23:59;;;;;;;3.88;3.45;;;21.00;94.40;;;;;;5099917;28;20484;-68
2021/09/19 12:26:30;;;;;;;3.60;3.28;;;20.90;94.70;;;;;;5096090;28;20027;-68
2021/09/19 12:28:59;;;;;;;3.97;3.40;;;20.70;95.30;;;;;;5098570;28;20039;-67
2021/09/19 12:31:49;;;;;;;3.55;3.25;;;20.60;95.30;;;;;;5097472;28;20020;-67
2021/09/19 12:34:20;;;;;;;5.35;3.63;;;20.50;95.70;;;;;;5097462;28;20100;-67
2021/09/19 12:36:52;;;;;;;4.13;3.72;;;20.40;96.00;;;;;;5097108;28;20022;-68
2021/09/19 12:39:22;;;;;;;6.70;3.70;;;20.40;95.80;;;;;;5096951;28;20386;-68
2021/09/19 12:41:57;;;;;;;3.92;3.30;;;20.30;96.20;;;;;;5103419;28;20084;-69
2021/09/19 12:44:27;;;;;;;5.38;3.70;;;20.40;96.50;;;;;;5104827;28;20020;-68
2021/09/19 12:46:57;;;;;;;4.45;3.88;;;20.30;96.00;;;;;;5101964;28;20052;-67
2021/09/19 12:49:43;;;;;;;7.05;3.50;;;20.30;96.50;;;;;;5100051;28;20032;-68
2021/09/19 12:52:13;;;;;;;5.07;3.60;;;20.30;96.10;;;;;;5102041;28;20024;-67